NORTHEAST SUFFOLK  -  Winter Weather Advisory Winter Weather Advisory     Winter Weather Advisory Winter Weather Advisory        NORTHERN NASSAU  -  Winter Weather Advisory Winter Weather Advisory        NORTHWEST SUFFOLK  -  Winter Weather Advisory Winter Weather Advisory     Winter Weather Advisory Winter Weather Advisory        SOUTHEAST SUFFOLK  -  Winter Weather Advisory Winter Weather Advisory     Winter Weather Advisory Winter Weather Advisory        SOUTHERN NASSAU  -  Winter Weather Advisory Winter Weather Advisory        SOUTHWEST SUFFOLK  -  Winter Weather Advisory Winter Weather Advisory     Winter Weather Advisory Winter Weather Advisory      

Active alerts

Northern Nassau
  Details for Northern Nassau Winter Weather Advisory
Southern Nassau
  Details for Southern Nassau Winter Weather Advisory
Northwest Suffolk
  Details for Northwest Suffolk Winter Weather Advisory  +1 additional alert
Southwest Suffolk
  Details for Southwest Suffolk Winter Weather Advisory  +1 additional alert
Northeast Suffolk
  Details for Northeast Suffolk Winter Weather Advisory  +1 additional alert
Southeast Suffolk
  Details for Southeast Suffolk Winter Weather Advisory  +1 additional alert


WXM80 ListenWXM80 Stop

You find our weather info also at:

UK Metoffice

WeatherCloud

Weather Underground

Northeastern Weather Network

AWEKAS

Citizen Weather Observer Program (CWOP)

HAMweather, WeatherForYou, PWS Weather


Weather Underground History page Text

Daily Summary for October 7, 2017 Units:  Both    English   Metric
« Previous Day
Next Day »
Daily Weekly Monthly Yearly Custom
  High: Low: Average:
Temperature: 79.5 °F /  26.4 °C 66.6 °F /  19.2 °C 71.1 °F /  21.7 °C
Dew Point: 71.6 °F /  22 °C 64.3 °F /  17.9 °C 67.5 °F /  19.7 °C
Humidity: 97 % 66 % 89 %
Wind Speed: 7.0 mph /  11.3 km/h - 1 mph /  1.6 km/h
Wind Gust: 12.7 mph /  20.4 km/h - -
Wind:- - SSE
Pressure: 30.11 in /  1019.5 hPa 29.98 in /  1015.1 hPa -
Precipitation: 0.00 in /  0 mm    
Historical Graphs
 
 
Tabular Data for October 7, 2017
Time Temperature Dew Point Pressure Wind Wind Speed Wind Gust Humidity Rainfall Rate (Hourly)
00:01 67.2 °F /  19.6 °C 64.8 °F /  18.2 °C 30.05 in /  1017.5 hPa Calm     92 % 0.00 in /  0 mm
00:06 67.1 °F /  19.5 °C 64.7 °F /  18.2 °C 30.05 in /  1017.5 hPa Calm     92 % 0.00 in /  0 mm
00:11 67.1 °F /  19.5 °C 64.7 °F /  18.2 °C 30.05 in /  1017.5 hPa Calm     92 % 0.00 in /  0 mm
00:16 67.0 °F /  19.4 °C 64.6 °F /  18.1 °C 30.05 in /  1017.5 hPa Calm     92 % 0.00 in /  0 mm
00:21 67.0 °F /  19.4 °C 64.6 °F /  18.1 °C 30.05 in /  1017.5 hPa Calm     92 % 0.00 in /  0 mm
00:25 67.0 °F /  19.4 °C 64.6 °F /  18.1 °C 30.05 in /  1017.5 hPa Calm     92 % 0.00 in /  0 mm
00:30 66.9 °F /  19.4 °C 64.5 °F /  18.1 °C 30.05 in /  1017.5 hPa Calm     92 % 0.00 in /  0 mm
00:35 66.8 °F /  19.3 °C 64.4 °F /  18 °C 30.05 in /  1017.5 hPa Calm     92 % 0.00 in /  0 mm
00:41 66.7 °F /  19.3 °C 64.3 °F /  17.9 °C 30.06 in /  1017.8 hPa Calm     92 % 0.00 in /  0 mm
00:46 66.7 °F /  19.3 °C 64.3 °F /  17.9 °C 30.06 in /  1017.8 hPa Calm     92 % 0.00 in /  0 mm
00:51 66.7 °F /  19.3 °C 64.3 °F /  17.9 °C 30.06 in /  1017.8 hPa Calm     92 % 0.00 in /  0 mm
00:56 66.6 °F /  19.2 °C 64.5 °F /  18.1 °C 30.06 in /  1017.8 hPa Calm     93 % 0.00 in /  0 mm
01:01 66.7 °F /  19.3 °C 64.6 °F /  18.1 °C 30.06 in /  1017.8 hPa Calm     93 % 0.00 in /  0 mm
01:06 66.6 °F /  19.2 °C 64.5 °F /  18.1 °C 30.06 in /  1017.8 hPa Calm     93 % 0.00 in /  0 mm
01:11 66.7 °F /  19.3 °C 64.6 °F /  18.1 °C 30.06 in /  1017.8 hPa Calm     93 % 0.00 in /  0 mm
01:16 66.7 °F /  19.3 °C 64.9 °F /  18.3 °C 30.06 in /  1017.8 hPa Calm     94 % 0.00 in /  0 mm
01:21 66.7 °F /  19.3 °C 64.9 °F /  18.3 °C 30.06 in /  1017.8 hPa Calm     94 % 0.00 in /  0 mm
01:26 66.8 °F /  19.3 °C 65.0 °F /  18.3 °C 30.06 in /  1017.8 hPa Calm     94 % 0.00 in /  0 mm
01:31 66.8 °F /  19.3 °C 65.0 °F /  18.3 °C 30.06 in /  1017.8 hPa Calm     94 % 0.00 in /  0 mm
01:36 66.9 °F /  19.4 °C 65.1 °F /  18.4 °C 30.06 in /  1017.8 hPa Calm     94 % 0.00 in /  0 mm
01:41 67.0 °F /  19.4 °C 65.5 °F /  18.6 °C 30.06 in /  1017.8 hPa Calm     95 % 0.00 in /  0 mm
01:46 67.0 °F /  19.4 °C 65.5 °F /  18.6 °C 30.06 in /  1017.8 hPa Calm     95 % 0.00 in /  0 mm
01:51 67.0 °F /  19.4 °C 65.5 °F /  18.6 °C 30.06 in /  1017.8 hPa Calm     95 % 0.00 in /  0 mm
01:56 67.0 °F /  19.4 °C 65.5 °F /  18.6 °C 30.06 in /  1017.8 hPa Calm     95 % 0.00 in /  0 mm
02:01 67.0 °F /  19.4 °C 65.5 °F /  18.6 °C 30.06 in /  1017.8 hPa Calm   1.2 mph /  1.9 km/h 95 % 0.00 in /  0 mm
02:06 67.0 °F /  19.4 °C 65.2 °F /  18.4 °C 30.06 in /  1017.8 hPa Calm     94 % 0.00 in /  0 mm
02:11 67.0 °F /  19.4 °C 65.5 °F /  18.6 °C 30.06 in /  1017.8 hPa Calm     95 % 0.00 in /  0 mm
02:17 67.0 °F /  19.4 °C 65.2 °F /  18.4 °C 30.05 in /  1017.5 hPa Calm     94 % 0.00 in /  0 mm
02:22 67.0 °F /  19.4 °C 65.5 °F /  18.6 °C 30.05 in /  1017.5 hPa Calm     95 % 0.00 in /  0 mm
02:27 67.0 °F /  19.4 °C 65.5 °F /  18.6 °C 30.05 in /  1017.5 hPa Calm     95 % 0.00 in /  0 mm
02:33 67.0 °F /  19.4 °C 65.5 °F /  18.6 °C 30.05 in /  1017.5 hPa Calm     95 % 0.00 in /  0 mm
02:38 67.0 °F /  19.4 °C 65.5 °F /  18.6 °C 30.05 in /  1017.5 hPa Calm     95 % 0.00 in /  0 mm
02:43 67.0 °F /  19.4 °C 65.5 °F /  18.6 °C 30.05 in /  1017.5 hPa Calm     95 % 0.00 in /  0 mm
02:48 67.1 °F /  19.5 °C 65.6 °F /  18.7 °C 30.05 in /  1017.5 hPa Calm     95 % 0.00 in /  0 mm
02:53 67.1 °F /  19.5 °C 65.6 °F /  18.7 °C 30.05 in /  1017.5 hPa SSE 0.3 mph /  0.5 km/h 1.2 mph /  1.9 km/h 95 % 0.00 in /  0 mm
02:58 67.1 °F /  19.5 °C 65.6 °F /  18.7 °C 30.05 in /  1017.5 hPa Calm     95 % 0.00 in /  0 mm
03:03 67.2 °F /  19.6 °C 65.7 °F /  18.7 °C 30.05 in /  1017.5 hPa Calm     95 % 0.00 in /  0 mm
03:08 67.2 °F /  19.6 °C 65.7 °F /  18.7 °C 30.05 in /  1017.5 hPa Calm     95 % 0.00 in /  0 mm
03:13 67.2 °F /  19.6 °C 65.7 °F /  18.7 °C 30.05 in /  1017.5 hPa Calm     95 % 0.00 in /  0 mm
03:18 67.2 °F /  19.6 °C 65.7 °F /  18.7 °C 30.05 in /  1017.5 hPa Calm     95 % 0.00 in /  0 mm
03:23 67.3 °F /  19.6 °C 65.8 °F /  18.8 °C 30.05 in /  1017.5 hPa Calm     95 % 0.00 in /  0 mm
03:28 67.3 °F /  19.6 °C 65.8 °F /  18.8 °C 30.05 in /  1017.5 hPa Calm     95 % 0.00 in /  0 mm
03:33 67.3 °F /  19.6 °C 65.8 °F /  18.8 °C 30.06 in /  1017.8 hPa Calm     95 % 0.00 in /  0 mm
03:38 67.3 °F /  19.6 °C 65.8 °F /  18.8 °C 30.05 in /  1017.5 hPa Calm     95 % 0.00 in /  0 mm
03:43 67.4 °F /  19.7 °C 66.2 °F /  19 °C 30.06 in /  1017.8 hPa SSE 0.2 mph /  0.3 km/h 2.0 mph /  3.2 km/h 96 % 0.00 in /  0 mm
03:48 67.4 °F /  19.7 °C 66.2 °F /  19 °C 30.06 in /  1017.8 hPa Calm     96 % 0.00 in /  0 mm
03:53 67.3 °F /  19.6 °C 65.8 °F /  18.8 °C 30.05 in /  1017.5 hPa Calm     95 % 0.00 in /  0 mm
03:58 67.3 °F /  19.6 °C 66.1 °F /  18.9 °C 30.06 in /  1017.8 hPa Calm     96 % 0.00 in /  0 mm
04:03 67.3 °F /  19.6 °C 66.1 °F /  18.9 °C 30.06 in /  1017.8 hPa Calm     96 % 0.00 in /  0 mm
04:08 67.3 °F /  19.6 °C 66.1 °F /  18.9 °C 30.06 in /  1017.8 hPa Calm     96 % 0.00 in /  0 mm
04:14 67.3 °F /  19.6 °C 66.1 °F /  18.9 °C 30.06 in /  1017.8 hPa Calm     96 % 0.00 in /  0 mm
04:19 67.3 °F /  19.6 °C 66.1 °F /  18.9 °C 30.06 in /  1017.8 hPa Calm     96 % 0.00 in /  0 mm
04:24 67.4 °F /  19.7 °C 66.2 °F /  19 °C 30.06 in /  1017.8 hPa Calm     96 % 0.00 in /  0 mm
04:29 67.3 °F /  19.6 °C 66.1 °F /  18.9 °C 30.06 in /  1017.8 hPa Calm     96 % 0.00 in /  0 mm
04:34 67.3 °F /  19.6 °C 66.1 °F /  18.9 °C 30.06 in /  1017.8 hPa Calm     96 % 0.00 in /  0 mm
04:39 67.3 °F /  19.6 °C 66.1 °F /  18.9 °C 30.06 in /  1017.8 hPa Calm     96 % 0.00 in /  0 mm
04:44 67.2 °F /  19.6 °C 66.0 °F /  18.9 °C 30.06 in /  1017.8 hPa Calm     96 % 0.00 in /  0 mm
04:49 67.3 °F /  19.6 °C 66.1 °F /  18.9 °C 30.06 in /  1017.8 hPa SSE 0.9 mph /  1.4 km/h 3.0 mph /  4.8 km/h 96 % 0.00 in /  0 mm
04:54 67.4 °F /  19.7 °C 66.2 °F /  19 °C 30.06 in /  1017.8 hPa Calm   1.2 mph /  1.9 km/h 96 % 0.00 in /  0 mm
04:59 67.4 °F /  19.7 °C 66.2 °F /  19 °C 30.06 in /  1017.8 hPa Calm     96 % 0.00 in /  0 mm
05:09 67.4 °F /  19.7 °C 66.2 °F /  19 °C 30.07 in /  1018.2 hPa Calm     96 % 0.00 in /  0 mm
05:15 67.3 °F /  19.6 °C 66.1 °F /  18.9 °C 30.06 in /  1017.8 hPa Calm     96 % 0.00 in /  0 mm
05:20 67.3 °F /  19.6 °C 66.1 °F /  18.9 °C 30.06 in /  1017.8 hPa Calm     96 % 0.00 in /  0 mm
05:25 67.3 °F /  19.6 °C 66.1 °F /  18.9 °C 30.06 in /  1017.8 hPa Calm     96 % 0.00 in /  0 mm
05:30 67.3 °F /  19.6 °C 66.1 °F /  18.9 °C 30.06 in /  1017.8 hPa Calm     96 % 0.00 in /  0 mm
05:35 67.3 °F /  19.6 °C 66.1 °F /  18.9 °C 30.07 in /  1018.2 hPa Calm     96 % 0.00 in /  0 mm
05:40 67.3 °F /  19.6 °C 66.1 °F /  18.9 °C 30.07 in /  1018.2 hPa Calm     96 % 0.00 in /  0 mm
05:45 67.2 °F /  19.6 °C 66.0 °F /  18.9 °C 30.07 in /  1018.2 hPa Calm     96 % 0.00 in /  0 mm
05:50 67.2 °F /  19.6 °C 66.0 °F /  18.9 °C 30.07 in /  1018.2 hPa Calm     96 % 0.00 in /  0 mm
05:55 67.2 °F /  19.6 °C 66.0 °F /  18.9 °C 30.06 in /  1017.8 hPa Calm     96 % 0.00 in /  0 mm
06:00 67.2 °F /  19.6 °C 66.0 °F /  18.9 °C 30.07 in /  1018.2 hPa Calm     96 % 0.00 in /  0 mm
06:05 67.2 °F /  19.6 °C 66.0 °F /  18.9 °C 30.06 in /  1017.8 hPa Calm     96 % 0.00 in /  0 mm
06:10 67.2 °F /  19.6 °C 66.0 °F /  18.9 °C 30.06 in /  1017.8 hPa Calm     96 % 0.00 in /  0 mm
06:15 67.2 °F /  19.6 °C 66.0 °F /  18.9 °C 30.07 in /  1018.2 hPa Calm     96 % 0.00 in /  0 mm
06:21 67.1 °F /  19.5 °C 65.9 °F /  18.8 °C 30.07 in /  1018.2 hPa Calm     96 % 0.00 in /  0 mm
06:25 67.1 °F /  19.5 °C 65.9 °F /  18.8 °C 30.07 in /  1018.2 hPa Calm     96 % 0.00 in /  0 mm
06:30 67.1 °F /  19.5 °C 65.9 °F /  18.8 °C 30.07 in /  1018.2 hPa Calm     96 % 0.00 in /  0 mm
06:35 67.0 °F /  19.4 °C 65.8 °F /  18.8 °C 30.07 in /  1018.2 hPa Calm     96 % 0.00 in /  0 mm
06:45 67.0 °F /  19.4 °C 65.8 °F /  18.8 °C 30.07 in /  1018.2 hPa Calm     96 % 0.00 in /  0 mm
06:50 67.0 °F /  19.4 °C 65.8 °F /  18.8 °C 30.07 in /  1018.2 hPa Calm     96 % 0.00 in /  0 mm
06:55 67.0 °F /  19.4 °C 65.8 °F /  18.8 °C 30.07 in /  1018.2 hPa Calm     96 % 0.00 in /  0 mm
07:01 66.9 °F /  19.4 °C 65.7 °F /  18.7 °C 30.07 in /  1018.2 hPa Calm     96 % 0.00 in /  0 mm
07:06 66.9 °F /  19.4 °C 65.7 °F /  18.7 °C 30.07 in /  1018.2 hPa Calm     96 % 0.00 in /  0 mm
07:11 66.9 °F /  19.4 °C 65.7 °F /  18.7 °C 30.07 in /  1018.2 hPa Calm     96 % 0.00 in /  0 mm
07:16 66.9 °F /  19.4 °C 65.7 °F /  18.7 °C 30.07 in /  1018.2 hPa Calm     96 % 0.00 in /  0 mm
07:21 66.9 °F /  19.4 °C 65.7 °F /  18.7 °C 30.08 in /  1018.5 hPa Calm     96 % 0.00 in /  0 mm
07:26 66.9 °F /  19.4 °C 65.7 °F /  18.7 °C 30.08 in /  1018.5 hPa Calm   1.2 mph /  1.9 km/h 96 % 0.00 in /  0 mm
07:31 66.9 °F /  19.4 °C 65.7 °F /  18.7 °C 30.08 in /  1018.5 hPa Calm     96 % 0.00 in /  0 mm
07:36 66.9 °F /  19.4 °C 65.7 °F /  18.7 °C 30.08 in /  1018.5 hPa Calm     96 % 0.00 in /  0 mm
07:41 66.9 °F /  19.4 °C 65.7 °F /  18.7 °C 30.08 in /  1018.5 hPa Calm     96 % 0.00 in /  0 mm
07:46 66.9 °F /  19.4 °C 65.7 °F /  18.7 °C 30.08 in /  1018.5 hPa Calm     96 % 0.00 in /  0 mm
07:51 67.0 °F /  19.4 °C 65.8 °F /  18.8 °C 30.08 in /  1018.5 hPa Calm     96 % 0.00 in /  0 mm
07:56 67.0 °F /  19.4 °C 65.8 °F /  18.8 °C 30.08 in /  1018.5 hPa Calm     96 % 0.00 in /  0 mm
08:01 67.0 °F /  19.4 °C 66.1 °F /  18.9 °C 30.09 in /  1018.8 hPa Calm     97 % 0.00 in /  0 mm
08:06 67.1 °F /  19.5 °C 66.2 °F /  19 °C 30.08 in /  1018.5 hPa Calm     97 % 0.00 in /  0 mm
08:11 67.2 °F /  19.6 °C 66.3 °F /  19.1 °C 30.09 in /  1018.8 hPa Calm     97 % 0.00 in /  0 mm
08:16 67.2 °F /  19.6 °C 66.3 °F /  19.1 °C 30.09 in /  1018.8 hPa Calm     97 % 0.00 in /  0 mm
08:21 67.3 °F /  19.6 °C 66.4 °F /  19.1 °C 30.09 in /  1018.8 hPa Calm     97 % 0.00 in /  0 mm
08:26 67.4 °F /  19.7 °C 66.5 °F /  19.2 °C 30.09 in /  1018.8 hPa Calm     97 % 0.00 in /  0 mm
08:31 67.5 °F /  19.7 °C 66.6 °F /  19.2 °C 30.09 in /  1018.8 hPa SSE 0.3 mph /  0.5 km/h 1.2 mph /  1.9 km/h 97 % 0.00 in /  0 mm
08:36 67.5 °F /  19.7 °C 66.6 °F /  19.2 °C 30.10 in /  1019.2 hPa Calm   1.2 mph /  1.9 km/h 97 % 0.00 in /  0 mm
08:41 67.6 °F /  19.8 °C 66.7 °F /  19.3 °C 30.10 in /  1019.2 hPa Calm     97 % 0.00 in /  0 mm
08:46 67.6 °F /  19.8 °C 66.7 °F /  19.3 °C 30.10 in /  1019.2 hPa Calm     97 % 0.00 in /  0 mm
08:51 67.6 °F /  19.8 °C 66.7 °F /  19.3 °C 30.10 in /  1019.2 hPa SSE 0.5 mph /  0.8 km/h 2.0 mph /  3.2 km/h 97 % 0.00 in /  0 mm
08:56 67.7 °F /  19.8 °C 66.8 °F /  19.3 °C 30.11 in /  1019.5 hPa Calm     97 % 0.00 in /  0 mm
09:01 67.7 °F /  19.8 °C 66.8 °F /  19.3 °C 30.11 in /  1019.5 hPa Calm     97 % 0.00 in /  0 mm
09:06 67.7 °F /  19.8 °C 66.8 °F /  19.3 °C 30.10 in /  1019.2 hPa Calm     97 % 0.00 in /  0 mm
09:11 67.9 °F /  19.9 °C 67.0 °F /  19.4 °C 30.10 in /  1019.2 hPa Calm     97 % 0.00 in /  0 mm
09:17 68.0 °F /  20 °C 67.1 °F /  19.5 °C 30.10 in /  1019.2 hPa Calm   1.2 mph /  1.9 km/h 97 % 0.00 in /  0 mm
09:22 68.1 °F /  20.1 °C 67.2 °F /  19.6 °C 30.10 in /  1019.2 hPa Calm   1.2 mph /  1.9 km/h 97 % 0.00 in /  0 mm
09:27 68.2 °F /  20.1 °C 67.3 °F /  19.6 °C 30.11 in /  1019.5 hPa Calm     97 % 0.00 in /  0 mm
09:32 68.2 °F /  20.1 °C 67.3 °F /  19.6 °C 30.11 in /  1019.5 hPa Calm     97 % 0.00 in /  0 mm
09:37 68.2 °F /  20.1 °C 67.3 °F /  19.6 °C 30.11 in /  1019.5 hPa Calm     97 % 0.00 in /  0 mm
09:42 68.3 °F /  20.2 °C 67.4 °F /  19.7 °C 30.11 in /  1019.5 hPa Calm   1.0 mph /  1.6 km/h 97 % 0.00 in /  0 mm
09:47 68.4 °F /  20.2 °C 67.5 °F /  19.7 °C 30.11 in /  1019.5 hPa SSE 0.2 mph /  0.3 km/h 2.3 mph /  3.7 km/h 97 % 0.00 in /  0 mm
09:48 68.3 °F /  20.2 °C 67.4 °F /  19.7 °C 30.11 in /  1019.5 hPa Calm   2.3 mph /  3.7 km/h 97 % 0.00 in /  0 mm
09:58 68.5 °F /  20.3 °C 67.6 °F /  19.8 °C 30.11 in /  1019.5 hPa SSE 0.3 mph /  0.5 km/h 1.2 mph /  1.9 km/h 97 % 0.00 in /  0 mm
10:08 68.7 °F /  20.4 °C 67.8 °F /  19.9 °C 30.11 in /  1019.5 hPa SSE 0.4 mph /  0.6 km/h 3.5 mph /  5.6 km/h 97 % 0.00 in /  0 mm
10:13 68.9 °F /  20.5 °C 68.0 °F /  20 °C 30.10 in /  1019.2 hPa Calm     97 % 0.00 in /  0 mm
10:23 69.4 °F /  20.8 °C 68.5 °F /  20.3 °C 30.10 in /  1019.2 hPa Calm   1.2 mph /  1.9 km/h 97 % 0.00 in /  0 mm
10:28 69.6 °F /  20.9 °C 68.4 °F /  20.2 °C 30.10 in /  1019.2 hPa Calm     96 % 0.00 in /  0 mm
10:33 69.8 °F /  21 °C 68.6 °F /  20.3 °C 30.10 in /  1019.2 hPa SSE 0.2 mph /  0.3 km/h 1.2 mph /  1.9 km/h 96 % 0.00 in /  0 mm
10:38 70.2 °F /  21.2 °C 69.0 °F /  20.6 °C 30.09 in /  1018.8 hPa SSE 0.8 mph /  1.3 km/h 2.3 mph /  3.7 km/h 96 % 0.00 in /  0 mm
10:43 70.4 °F /  21.3 °C 69.2 °F /  20.7 °C 30.09 in /  1018.8 hPa SSE 0.3 mph /  0.5 km/h 1.2 mph /  1.9 km/h 96 % 0.00 in /  0 mm
10:48 70.8 °F /  21.6 °C 69.6 °F /  20.9 °C 30.09 in /  1018.8 hPa SSE 0.9 mph /  1.4 km/h 3.5 mph /  5.6 km/h 96 % 0.00 in /  0 mm
10:53 71.1 °F /  21.7 °C 69.6 °F /  20.9 °C 30.09 in /  1018.8 hPa Calm   2.3 mph /  3.7 km/h 95 % 0.00 in /  0 mm
10:58 71.5 °F /  21.9 °C 69.7 °F /  20.9 °C 30.09 in /  1018.8 hPa NE 1.4 mph /  2.3 km/h 3.5 mph /  5.6 km/h 94 % 0.00 in /  0 mm
11:03 71.9 °F /  22.2 °C 69.8 °F /  21 °C 30.08 in /  1018.5 hPa NE 1.3 mph /  2.1 km/h 3.5 mph /  5.6 km/h 93 % 0.00 in /  0 mm
11:08 72.5 °F /  22.5 °C 70.4 °F /  21.3 °C 30.08 in /  1018.5 hPa North 2.1 mph /  3.4 km/h 4.6 mph /  7.4 km/h 93 % 0.00 in /  0 mm
11:11 72.9 °F /  22.7 °C 70.4 °F /  21.3 °C 30.09 in /  1018.8 hPa Calm   1.2 mph /  1.9 km/h 92 % 0.00 in /  0 mm
11:16 73.9 °F /  23.3 °C 71.1 °F /  21.7 °C 30.09 in /  1018.8 hPa NNE 2.8 mph /  4.5 km/h 6.0 mph /  9.7 km/h 91 % 0.00 in /  0 mm
11:21 74.8 °F /  23.8 °C 71.0 °F /  21.7 °C 30.09 in /  1018.8 hPa North 4.7 mph /  7.6 km/h 4.7 mph /  7.6 km/h 88 % 0.00 in /  0 mm
11:26 75.5 °F /  24.2 °C 71.0 °F /  21.7 °C 30.08 in /  1018.5 hPa NE 0.8 mph /  1.3 km/h 3.5 mph /  5.6 km/h 86 % 0.00 in /  0 mm
11:31 76.0 °F /  24.4 °C 70.8 °F /  21.6 °C 30.08 in /  1018.5 hPa Calm   3.5 mph /  5.6 km/h 84 % 0.00 in /  0 mm
11:36 76.5 °F /  24.7 °C 70.9 °F /  21.6 °C 30.08 in /  1018.5 hPa NNE 2.4 mph /  3.9 km/h 4.6 mph /  7.4 km/h 83 % 0.00 in /  0 mm
11:41 76.8 °F /  24.9 °C 70.9 °F /  21.6 °C 30.08 in /  1018.5 hPa NNE 2.9 mph /  4.7 km/h 5.8 mph /  9.3 km/h 82 % 0.00 in /  0 mm
11:46 77.1 °F /  25.1 °C 70.8 °F /  21.6 °C 30.08 in /  1018.5 hPa North 1.3 mph /  2.1 km/h 4.6 mph /  7.4 km/h 81 % 0.00 in /  0 mm
11:51 77.3 °F /  25.2 °C 71.0 °F /  21.7 °C 30.08 in /  1018.5 hPa North 1.9 mph /  3.1 km/h 3.0 mph /  4.8 km/h 81 % 0.00 in /  0 mm
11:56 77.4 °F /  25.2 °C 70.4 °F /  21.3 °C 30.08 in /  1018.5 hPa NNE 3.0 mph /  4.8 km/h 5.8 mph /  9.3 km/h 79 % 0.00 in /  0 mm
12:02 77.5 °F /  25.3 °C 71.2 °F /  21.8 °C 30.08 in /  1018.5 hPa ENE 0.9 mph /  1.4 km/h 2.3 mph /  3.7 km/h 81 % 0.00 in /  0 mm
12:06 77.6 °F /  25.3 °C 70.6 °F /  21.4 °C 30.08 in /  1018.5 hPa North 1.1 mph /  1.8 km/h 5.0 mph /  8 km/h 79 % 0.00 in /  0 mm
12:11 77.6 °F /  25.3 °C 70.6 °F /  21.4 °C 30.08 in /  1018.5 hPa North 2.0 mph /  3.2 km/h 4.6 mph /  7.4 km/h 79 % 0.00 in /  0 mm
12:16 77.7 °F /  25.4 °C 71.0 °F /  21.7 °C 30.08 in /  1018.5 hPa NNE 1.5 mph /  2.4 km/h 3.5 mph /  5.6 km/h 80 % 0.00 in /  0 mm
12:22 77.6 °F /  25.3 °C 70.6 °F /  21.4 °C 30.08 in /  1018.5 hPa NNE 2.5 mph /  4 km/h 4.6 mph /  7.4 km/h 79 % 0.00 in /  0 mm
12:27 77.4 °F /  25.2 °C 70.4 °F /  21.3 °C 30.08 in /  1018.5 hPa NNE 2.9 mph /  4.7 km/h 5.8 mph /  9.3 km/h 79 % 0.00 in /  0 mm
12:32 77.3 °F /  25.2 °C 70.6 °F /  21.4 °C 30.07 in /  1018.2 hPa NNE 0.8 mph /  1.3 km/h 3.0 mph /  4.8 km/h 80 % 0.00 in /  0 mm
12:37 77.3 °F /  25.2 °C 71.0 °F /  21.7 °C 30.07 in /  1018.2 hPa NE 2.2 mph /  3.5 km/h 3.5 mph /  5.6 km/h 81 % 0.00 in /  0 mm
12:42 77.2 °F /  25.1 °C 70.2 °F /  21.2 °C 30.07 in /  1018.2 hPa ENE 1.2 mph /  1.9 km/h 6.9 mph /  11.1 km/h 79 % 0.00 in /  0 mm
12:47 77.3 °F /  25.2 °C 70.6 °F /  21.4 °C 30.07 in /  1018.2 hPa ENE 3.6 mph /  5.8 km/h 4.6 mph /  7.4 km/h 80 % 0.00 in /  0 mm
12:49 77.2 °F /  25.1 °C 70.5 °F /  21.4 °C 30.06 in /  1017.8 hPa ENE 2.4 mph /  3.9 km/h 4.6 mph /  7.4 km/h 80 % 0.00 in /  0 mm
12:54 77.1 °F /  25.1 °C 70.5 °F /  21.4 °C 30.06 in /  1017.8 hPa NE 2.5 mph /  4 km/h 4.6 mph /  7.4 km/h 80 % 0.00 in /  0 mm
12:59 76.9 °F /  24.9 °C 70.3 °F /  21.3 °C 30.06 in /  1017.8 hPa ENE 2.3 mph /  3.7 km/h 4.6 mph /  7.4 km/h 80 % 0.00 in /  0 mm
13:04 76.9 °F /  24.9 °C 70.3 °F /  21.3 °C 30.06 in /  1017.8 hPa ENE 2.2 mph /  3.5 km/h 4.6 mph /  7.4 km/h 80 % 0.00 in /  0 mm
13:09 76.9 °F /  24.9 °C 70.6 °F /  21.4 °C 30.06 in /  1017.8 hPa ENE 2.2 mph /  3.5 km/h 4.6 mph /  7.4 km/h 81 % 0.00 in /  0 mm
13:15 77.1 °F /  25.1 °C 70.8 °F /  21.6 °C 30.05 in /  1017.5 hPa NE 0.1 mph /  0.2 km/h 2.3 mph /  3.7 km/h 81 % 0.00 in /  0 mm
13:20 77.1 °F /  25.1 °C 70.8 °F /  21.6 °C 30.06 in /  1017.8 hPa NE 2.1 mph /  3.4 km/h 3.5 mph /  5.6 km/h 81 % 0.00 in /  0 mm
13:25 77.5 °F /  25.3 °C 71.6 °F /  22 °C 30.05 in /  1017.5 hPa NNE 0.2 mph /  0.3 km/h 1.2 mph /  1.9 km/h 82 % 0.00 in /  0 mm
13:30 77.5 °F /  25.3 °C 70.8 °F /  21.6 °C 30.05 in /  1017.5 hPa NNW 3.0 mph /  4.8 km/h 3.5 mph /  5.6 km/h 80 % 0.00 in /  0 mm
13:35 77.4 °F /  25.2 °C 70.0 °F /  21.1 °C 30.05 in /  1017.5 hPa Calm     78 % 0.00 in /  0 mm
13:40 77.8 °F /  25.4 °C 71.5 °F /  21.9 °C 30.04 in /  1017.2 hPa Calm     81 % 0.00 in /  0 mm
13:45 78.0 °F /  25.6 °C 70.6 °F /  21.4 °C 30.04 in /  1017.2 hPa SSW 0.6 mph /  1 km/h 2.3 mph /  3.7 km/h 78 % 0.00 in /  0 mm
13:50 78.0 °F /  25.6 °C 67.4 °F /  19.7 °C 30.04 in /  1017.2 hPa South 1.4 mph /  2.3 km/h 3.5 mph /  5.6 km/h 70 % 0.00 in /  0 mm
13:55 78.0 °F /  25.6 °C 66.6 °F /  19.2 °C 30.04 in /  1017.2 hPa West 1.5 mph /  2.4 km/h 3.5 mph /  5.6 km/h 68 % 0.00 in /  0 mm
14:00 78.3 °F /  25.7 °C 67.7 °F /  19.8 °C 30.04 in /  1017.2 hPa SE 0.4 mph /  0.6 km/h 2.3 mph /  3.7 km/h 70 % 0.00 in /  0 mm
14:05 78.4 °F /  25.8 °C 67.8 °F /  19.9 °C 30.03 in /  1016.8 hPa SSW 0.1 mph /  0.2 km/h 2.3 mph /  3.7 km/h 70 % 0.00 in /  0 mm
14:10 78.6 °F /  25.9 °C 67.6 °F /  19.8 °C 30.04 in /  1017.2 hPa SE 1.3 mph /  2.1 km/h 3.5 mph /  5.6 km/h 69 % 0.00 in /  0 mm
14:15 78.7 °F /  25.9 °C 67.2 °F /  19.6 °C 30.03 in /  1016.8 hPa SE 0.8 mph /  1.3 km/h 3.5 mph /  5.6 km/h 68 % 0.00 in /  0 mm
14:20 78.7 °F /  25.9 °C 66.4 °F /  19.1 °C 30.03 in /  1016.8 hPa SSE 5.5 mph /  8.9 km/h 11.5 mph /  18.5 km/h 66 % 0.00 in /  0 mm
14:25 78.6 °F /  25.9 °C 67.2 °F /  19.6 °C 30.03 in /  1016.8 hPa SSE 6.1 mph /  9.8 km/h 7.0 mph /  11.3 km/h 68 % 0.00 in /  0 mm
14:30 78.6 °F /  25.9 °C 67.6 °F /  19.8 °C 30.03 in /  1016.8 hPa SE 1.4 mph /  2.3 km/h 2.3 mph /  3.7 km/h 69 % 0.00 in /  0 mm
14:35 78.7 °F /  25.9 °C 68.1 °F /  20.1 °C 30.03 in /  1016.8 hPa SE 2.7 mph /  4.3 km/h 6.9 mph /  11.1 km/h 70 % 0.00 in /  0 mm
14:40 78.8 °F /  26 °C 68.6 °F /  20.3 °C 30.03 in /  1016.8 hPa SW 0.9 mph /  1.4 km/h 3.5 mph /  5.6 km/h 71 % 0.00 in /  0 mm
14:45 79.2 °F /  26.2 °C 67.7 °F /  19.8 °C 30.03 in /  1016.8 hPa SE 4.6 mph /  7.4 km/h 11.5 mph /  18.5 km/h 68 % 0.00 in /  0 mm
14:51 79.3 °F /  26.3 °C 68.2 °F /  20.1 °C 30.03 in /  1016.8 hPa SSE 0.1 mph /  0.2 km/h 5.8 mph /  9.3 km/h 69 % 0.00 in /  0 mm
14:56 79.5 °F /  26.4 °C 68.9 °F /  20.5 °C 30.03 in /  1016.8 hPa SSE 5.0 mph /  8 km/h 10.0 mph /  16.1 km/h 70 % 0.00 in /  0 mm
15:01 79.4 °F /  26.3 °C 68.3 °F /  20.2 °C 30.03 in /  1016.8 hPa South 0.9 mph /  1.4 km/h 8.1 mph /  13 km/h 69 % 0.00 in /  0 mm
15:06 79.1 °F /  26.2 °C 68.1 °F /  20.1 °C 30.03 in /  1016.8 hPa SSE 1.0 mph /  1.6 km/h 12.0 mph /  19.3 km/h 69 % 0.00 in /  0 mm
15:11 78.5 °F /  25.8 °C 68.8 °F /  20.4 °C 30.03 in /  1016.8 hPa SSE 2.0 mph /  3.2 km/h 12.0 mph /  19.3 km/h 72 % 0.00 in /  0 mm
15:16 78.1 °F /  25.6 °C 69.1 °F /  20.6 °C 30.03 in /  1016.8 hPa SE 5.0 mph /  8 km/h 10.0 mph /  16.1 km/h 74 % 0.00 in /  0 mm
15:21 77.6 °F /  25.3 °C 69.0 °F /  20.6 °C 30.03 in /  1016.8 hPa SSE 2.0 mph /  3.2 km/h 7.0 mph /  11.3 km/h 75 % 0.00 in /  0 mm
15:26 77.1 °F /  25.1 °C 68.6 °F /  20.3 °C 30.03 in /  1016.8 hPa SE 5.0 mph /  8 km/h 12.0 mph /  19.3 km/h 75 % 0.00 in /  0 mm
15:36 76.6 °F /  24.8 °C 69.2 °F /  20.7 °C 30.03 in /  1016.8 hPa SE 1.0 mph /  1.6 km/h 6.0 mph /  9.7 km/h 78 % 0.00 in /  0 mm
15:41 76.5 °F /  24.7 °C 69.1 °F /  20.6 °C 30.03 in /  1016.8 hPa SE 6.0 mph /  9.7 km/h 12.0 mph /  19.3 km/h 78 % 0.00 in /  0 mm
15:46 76.3 °F /  24.6 °C 68.5 °F /  20.3 °C 30.03 in /  1016.8 hPa SE 6.0 mph /  9.7 km/h 12.0 mph /  19.3 km/h 77 % 0.00 in /  0 mm
15:51 76.0 °F /  24.4 °C 68.3 °F /  20.2 °C 30.03 in /  1016.8 hPa SE 2.0 mph /  3.2 km/h 9.0 mph /  14.5 km/h 77 % 0.00 in /  0 mm
15:56 75.8 °F /  24.3 °C 68.1 °F /  20.1 °C 30.03 in /  1016.8 hPa SE 7.0 mph /  11.3 km/h 12.0 mph /  19.3 km/h 77 % 0.00 in /  0 mm
16:01 75.6 °F /  24.2 °C 68.3 °F /  20.2 °C 30.03 in /  1016.8 hPa ESE 1.7 mph /  2.7 km/h 6.9 mph /  11.1 km/h 78 % 0.00 in /  0 mm
16:06 75.5 °F /  24.2 °C 68.5 °F /  20.3 °C 30.03 in /  1016.8 hPa SSE 2.5 mph /  4 km/h 8.1 mph /  13 km/h 79 % 0.00 in /  0 mm
16:16 75.4 °F /  24.1 °C 68.8 °F /  20.4 °C 30.03 in /  1016.8 hPa SW 1.5 mph /  2.4 km/h 4.6 mph /  7.4 km/h 80 % 0.00 in /  0 mm
16:21 75.4 °F /  24.1 °C 68.4 °F /  20.2 °C 30.03 in /  1016.8 hPa SSW 2.2 mph /  3.5 km/h 3.5 mph /  5.6 km/h 79 % 0.00 in /  0 mm
16:26 75.4 °F /  24.1 °C 68.1 °F /  20.1 °C 30.02 in /  1016.5 hPa ESE 0.4 mph /  0.6 km/h 2.0 mph /  3.2 km/h 78 % 0.00 in /  0 mm
16:31 75.4 °F /  24.1 °C 68.1 °F /  20.1 °C 30.02 in /  1016.5 hPa SE 1.0 mph /  1.6 km/h 3.5 mph /  5.6 km/h 78 % 0.00 in /  0 mm
16:36 75.5 °F /  24.2 °C 68.2 °F /  20.1 °C 30.02 in /  1016.5 hPa South 0.2 mph /  0.3 km/h 2.3 mph /  3.7 km/h 78 % 0.00 in /  0 mm
16:41 75.5 °F /  24.2 °C 68.2 °F /  20.1 °C 30.02 in /  1016.5 hPa SSE 3.1 mph /  5 km/h 7.0 mph /  11.3 km/h 78 % 0.00 in /  0 mm
16:46 75.5 °F /  24.2 °C 68.2 °F /  20.1 °C 30.02 in /  1016.5 hPa SE 1.3 mph /  2.1 km/h 3.5 mph /  5.6 km/h 78 % 0.00 in /  0 mm
16:51 75.4 °F /  24.1 °C 68.1 °F /  20.1 °C 30.01 in /  1016.1 hPa South 2.5 mph /  4 km/h 5.8 mph /  9.3 km/h 78 % 0.00 in /  0 mm
16:56 75.3 °F /  24.1 °C 68.0 °F /  20 °C 30.02 in /  1016.5 hPa SSW 1.5 mph /  2.4 km/h 3.5 mph /  5.6 km/h 78 % 0.00 in /  0 mm
17:01 75.2 °F /  24 °C 67.9 °F /  19.9 °C 30.01 in /  1016.1 hPa SE 2.6 mph /  4.2 km/h 6.9 mph /  11.1 km/h 78 % 0.00 in /  0 mm
17:06 75.1 °F /  23.9 °C 68.1 °F /  20.1 °C 30.01 in /  1016.1 hPa SW 0.1 mph /  0.2 km/h 1.2 mph /  1.9 km/h 79 % 0.00 in /  0 mm
17:11 75.0 °F /  23.9 °C 68.0 °F /  20 °C 30.02 in /  1016.5 hPa South 2.6 mph /  4.2 km/h 6.9 mph /  11.1 km/h 79 % 0.00 in /  0 mm
17:16 74.8 °F /  23.8 °C 68.2 °F /  20.1 °C 30.01 in /  1016.1 hPa SSW 1.6 mph /  2.6 km/h 2.3 mph /  3.7 km/h 80 % 0.00 in /  0 mm
17:21 74.6 °F /  23.7 °C 68.4 °F /  20.2 °C 30.02 in /  1016.5 hPa SSE 2.2 mph /  3.5 km/h 3.5 mph /  5.6 km/h 81 % 0.00 in /  0 mm
17:26 74.5 °F /  23.6 °C 68.3 °F /  20.2 °C 30.01 in /  1016.1 hPa SSE 4.2 mph /  6.8 km/h 8.1 mph /  13 km/h 81 % 0.00 in /  0 mm
17:31 74.3 °F /  23.5 °C 68.4 °F /  20.2 °C 30.01 in /  1016.1 hPa SE 1.8 mph /  2.9 km/h 5.0 mph /  8 km/h 82 % 0.00 in /  0 mm
17:37 74.1 °F /  23.4 °C 68.3 °F /  20.2 °C 30.01 in /  1016.1 hPa Calm   2.3 mph /  3.7 km/h 82 % 0.00 in /  0 mm
17:42 74.1 °F /  23.4 °C 68.3 °F /  20.2 °C 30.01 in /  1016.1 hPa SE 1.1 mph /  1.8 km/h 3.5 mph /  5.6 km/h 82 % 0.00 in /  0 mm
17:47 73.9 °F /  23.3 °C 68.1 °F /  20.1 °C 30.01 in /  1016.1 hPa South 2.9 mph /  4.7 km/h 9.2 mph /  14.8 km/h 82 % 0.00 in /  0 mm
17:52 73.7 °F /  23.2 °C 67.9 °F /  19.9 °C 30.01 in /  1016.1 hPa SSE 0.1 mph /  0.2 km/h 5.8 mph /  9.3 km/h 82 % 0.00 in /  0 mm
17:57 73.6 °F /  23.1 °C 67.8 °F /  19.9 °C 30.02 in /  1016.5 hPa SE 0.9 mph /  1.4 km/h 3.5 mph /  5.6 km/h 82 % 0.00 in /  0 mm
18:02 73.5 °F /  23.1 °C 67.7 °F /  19.8 °C 30.02 in /  1016.5 hPa South 1.1 mph /  1.8 km/h 3.5 mph /  5.6 km/h 82 % 0.00 in /  0 mm
18:07 73.3 °F /  22.9 °C 67.8 °F /  19.9 °C 30.01 in /  1016.1 hPa SSW 0.9 mph /  1.4 km/h 3.5 mph /  5.6 km/h 83 % 0.00 in /  0 mm
18:12 73.1 °F /  22.8 °C 67.6 °F /  19.8 °C 30.01 in /  1016.1 hPa SE 3.7 mph /  6 km/h 6.9 mph /  11.1 km/h 83 % 0.00 in /  0 mm
18:17 73.0 °F /  22.8 °C 67.9 °F /  19.9 °C 30.01 in /  1016.1 hPa SE 0.9 mph /  1.4 km/h 3.5 mph /  5.6 km/h 84 % 0.00 in /  0 mm
18:22 72.8 °F /  22.7 °C 67.7 °F /  19.8 °C 30.01 in /  1016.1 hPa SSW 3.1 mph /  5 km/h 6.9 mph /  11.1 km/h 84 % 0.00 in /  0 mm
18:27 72.7 °F /  22.6 °C 67.6 °F /  19.8 °C 30.01 in /  1016.1 hPa SSE 2.1 mph /  3.4 km/h 3.5 mph /  5.6 km/h 84 % 0.00 in /  0 mm
18:32 72.6 °F /  22.6 °C 67.5 °F /  19.7 °C 30.01 in /  1016.1 hPa South 1.4 mph /  2.3 km/h 3.5 mph /  5.6 km/h 84 % 0.00 in /  0 mm
18:37 72.4 °F /  22.4 °C 67.6 °F /  19.8 °C 30.01 in /  1016.1 hPa SE 0.1 mph /  0.2 km/h 1.2 mph /  1.9 km/h 85 % 0.00 in /  0 mm
18:42 72.3 °F /  22.4 °C 67.5 °F /  19.7 °C 30.01 in /  1016.1 hPa SSE 0.6 mph /  1 km/h 2.3 mph /  3.7 km/h 85 % 0.00 in /  0 mm
18:52 72.0 °F /  22.2 °C 67.6 °F /  19.8 °C 30.01 in /  1016.1 hPa SSW 0.9 mph /  1.4 km/h 6.0 mph /  9.7 km/h 86 % 0.00 in /  0 mm
18:57 71.9 °F /  22.2 °C 67.5 °F /  19.7 °C 30.01 in /  1016.1 hPa SE 1.7 mph /  2.7 km/h 3.5 mph /  5.6 km/h 86 % 0.00 in /  0 mm
19:02 71.7 °F /  22.1 °C 67.3 °F /  19.6 °C 30.01 in /  1016.1 hPa SSW 0.2 mph /  0.3 km/h 1.2 mph /  1.9 km/h 86 % 0.00 in /  0 mm
19:07 71.6 °F /  22 °C 67.5 °F /  19.7 °C 30.01 in /  1016.1 hPa SSE 0.3 mph /  0.5 km/h 1.2 mph /  1.9 km/h 87 % 0.00 in /  0 mm
19:12 71.6 °F /  22 °C 67.5 °F /  19.7 °C 30.01 in /  1016.1 hPa South 0.5 mph /  0.8 km/h 2.3 mph /  3.7 km/h 87 % 0.00 in /  0 mm
19:17 71.5 °F /  21.9 °C 67.4 °F /  19.7 °C 30.01 in /  1016.1 hPa SSE 0.2 mph /  0.3 km/h 1.2 mph /  1.9 km/h 87 % 0.00 in /  0 mm
19:22 71.5 °F /  21.9 °C 67.4 °F /  19.7 °C 30.01 in /  1016.1 hPa WSW 1.0 mph /  1.6 km/h 4.0 mph /  6.4 km/h 87 % 0.00 in /  0 mm
19:27 71.4 °F /  21.9 °C 67.7 °F /  19.8 °C 30.01 in /  1016.1 hPa SSE 1.0 mph /  1.6 km/h 3.5 mph /  5.6 km/h 88 % 0.00 in /  0 mm
19:32 71.4 °F /  21.9 °C 68.0 °F /  20 °C 30.01 in /  1016.1 hPa SSE 0.6 mph /  1 km/h 3.5 mph /  5.6 km/h 89 % 0.00 in /  0 mm
19:37 71.4 °F /  21.9 °C 68.0 °F /  20 °C 30.01 in /  1016.1 hPa WSW 1.6 mph /  2.6 km/h 4.6 mph /  7.4 km/h 89 % 0.00 in /  0 mm
19:42 71.4 °F /  21.9 °C 68.0 °F /  20 °C 30.01 in /  1016.1 hPa SSW 1.2 mph /  1.9 km/h 4.6 mph /  7.4 km/h 89 % 0.00 in /  0 mm
19:47 71.4 °F /  21.9 °C 68.3 °F /  20.2 °C 30.01 in /  1016.1 hPa SSW 3.3 mph /  5.3 km/h 5.8 mph /  9.3 km/h 90 % 0.00 in /  0 mm
19:52 71.4 °F /  21.9 °C 68.3 °F /  20.2 °C 30.01 in /  1016.1 hPa South 1.7 mph /  2.7 km/h 5.8 mph /  9.3 km/h 90 % 0.00 in /  0 mm
19:58 71.4 °F /  21.9 °C 68.3 °F /  20.2 °C 30.01 in /  1016.1 hPa SSE 1.6 mph /  2.6 km/h 5.8 mph /  9.3 km/h 90 % 0.00 in /  0 mm
20:03 71.4 °F /  21.9 °C 68.3 °F /  20.2 °C 30.01 in /  1016.1 hPa SSE 1.6 mph /  2.6 km/h 3.5 mph /  5.6 km/h 90 % 0.00 in /  0 mm
20:08 71.3 °F /  21.8 °C 68.2 °F /  20.1 °C 30.01 in /  1016.1 hPa SE 2.5 mph /  4 km/h 9.2 mph /  14.8 km/h 90 % 0.00 in /  0 mm
20:13 71.3 °F /  21.8 °C 68.2 °F /  20.1 °C 30.01 in /  1016.1 hPa SSE 1.1 mph /  1.8 km/h 9.2 mph /  14.8 km/h 90 % 0.00 in /  0 mm
20:18 71.3 °F /  21.8 °C 68.2 °F /  20.1 °C 30.01 in /  1016.1 hPa SSW 1.2 mph /  1.9 km/h 3.5 mph /  5.6 km/h 90 % 0.00 in /  0 mm
20:23 71.3 °F /  21.8 °C 68.2 °F /  20.1 °C 30.01 in /  1016.1 hPa SSW 0.7 mph /  1.1 km/h 1.2 mph /  1.9 km/h 90 % 0.00 in /  0 mm
20:28 71.3 °F /  21.8 °C 68.5 °F /  20.3 °C 30.01 in /  1016.1 hPa SSW 1.5 mph /  2.4 km/h 4.6 mph /  7.4 km/h 91 % 0.00 in /  0 mm
20:33 71.3 °F /  21.8 °C 68.2 °F /  20.1 °C 30.01 in /  1016.1 hPa South 1.9 mph /  3.1 km/h 4.0 mph /  6.4 km/h 90 % 0.00 in /  0 mm
20:38 71.3 °F /  21.8 °C 68.5 °F /  20.3 °C 30.01 in /  1016.1 hPa SSW 1.3 mph /  2.1 km/h 3.0 mph /  4.8 km/h 91 % 0.00 in /  0 mm
20:43 71.3 °F /  21.8 °C 68.5 °F /  20.3 °C 30.01 in /  1016.1 hPa SSE 1.0 mph /  1.6 km/h 3.5 mph /  5.6 km/h 91 % 0.00 in /  0 mm
20:48 71.3 °F /  21.8 °C 68.5 °F /  20.3 °C 30.01 in /  1016.1 hPa SSW 1.3 mph /  2.1 km/h 3.0 mph /  4.8 km/h 91 % 0.00 in /  0 mm
20:53 71.2 °F /  21.8 °C 68.4 °F /  20.2 °C 30.01 in /  1016.1 hPa South 0.8 mph /  1.3 km/h 3.5 mph /  5.6 km/h 91 % 0.00 in /  0 mm
20:58 71.2 °F /  21.8 °C 68.4 °F /  20.2 °C 30.01 in /  1016.1 hPa SSE 0.2 mph /  0.3 km/h 1.2 mph /  1.9 km/h 91 % 0.00 in /  0 mm
21:03 71.2 °F /  21.8 °C 68.4 °F /  20.2 °C 30.01 in /  1016.1 hPa SSE 1.1 mph /  1.8 km/h 3.5 mph /  5.6 km/h 91 % 0.00 in /  0 mm
21:08 71.1 °F /  21.7 °C 68.3 °F /  20.2 °C 30.01 in /  1016.1 hPa SSW 1.6 mph /  2.6 km/h 5.8 mph /  9.3 km/h 91 % 0.00 in /  0 mm
21:13 71.1 °F /  21.7 °C 68.3 °F /  20.2 °C 30.01 in /  1016.1 hPa SE 0.8 mph /  1.3 km/h 5.0 mph /  8 km/h 91 % 0.00 in /  0 mm
21:18 71.1 °F /  21.7 °C 68.3 °F /  20.2 °C 30.02 in /  1016.5 hPa South 1.2 mph /  1.9 km/h 2.3 mph /  3.7 km/h 91 % 0.00 in /  0 mm
21:23 71.0 °F /  21.7 °C 68.2 °F /  20.1 °C 30.02 in /  1016.5 hPa South 1.4 mph /  2.3 km/h 4.6 mph /  7.4 km/h 91 % 0.00 in /  0 mm
21:28 71.0 °F /  21.7 °C 68.2 °F /  20.1 °C 30.02 in /  1016.5 hPa South 0.6 mph /  1 km/h 3.5 mph /  5.6 km/h 91 % 0.00 in /  0 mm
21:33 70.9 °F /  21.6 °C 68.1 °F /  20.1 °C 30.02 in /  1016.5 hPa South 0.7 mph /  1.1 km/h 2.3 mph /  3.7 km/h 91 % 0.00 in /  0 mm
21:38 70.9 °F /  21.6 °C 68.1 °F /  20.1 °C 30.02 in /  1016.5 hPa South 1.0 mph /  1.6 km/h 3.5 mph /  5.6 km/h 91 % 0.00 in /  0 mm
21:43 70.8 °F /  21.6 °C 68.0 °F /  20 °C 30.02 in /  1016.5 hPa South 0.8 mph /  1.3 km/h 1.2 mph /  1.9 km/h 91 % 0.00 in /  0 mm
21:48 70.8 °F /  21.6 °C 68.0 °F /  20 °C 30.02 in /  1016.5 hPa SSE 1.9 mph /  3.1 km/h 4.6 mph /  7.4 km/h 91 % 0.00 in /  0 mm
21:53 70.8 °F /  21.6 °C 68.0 °F /  20 °C 30.02 in /  1016.5 hPa SSW 0.7 mph /  1.1 km/h 3.5 mph /  5.6 km/h 91 % 0.00 in /  0 mm
21:58 70.8 °F /  21.6 °C 68.0 °F /  20 °C 30.02 in /  1016.5 hPa SSW 3.2 mph /  5.1 km/h 11.5 mph /  18.5 km/h 91 % 0.00 in /  0 mm
22:08 70.8 °F /  21.6 °C 68.0 °F /  20 °C 30.02 in /  1016.5 hPa SSW 2.8 mph /  4.5 km/h 4.6 mph /  7.4 km/h 91 % 0.00 in /  0 mm
22:13 70.9 °F /  21.6 °C 68.1 °F /  20.1 °C 30.02 in /  1016.5 hPa SSW 2.8 mph /  4.5 km/h 4.6 mph /  7.4 km/h 91 % 0.00 in /  0 mm
22:23 71.0 °F /  21.7 °C 68.2 °F /  20.1 °C 30.02 in /  1016.5 hPa SW 1.3 mph /  2.1 km/h 3.5 mph /  5.6 km/h 91 % 0.00 in /  0 mm
22:28 71.1 °F /  21.7 °C 68.3 °F /  20.2 °C 30.02 in /  1016.5 hPa South 0.9 mph /  1.4 km/h 4.6 mph /  7.4 km/h 91 % 0.00 in /  0 mm
22:33 71.1 °F /  21.7 °C 68.3 °F /  20.2 °C 30.01 in /  1016.1 hPa South 3.9 mph /  6.3 km/h 6.0 mph /  9.7 km/h 91 % 0.00 in /  0 mm
22:38 71.1 °F /  21.7 °C 68.3 °F /  20.2 °C 30.01 in /  1016.1 hPa SSW 0.6 mph /  1 km/h 4.0 mph /  6.4 km/h 91 % 0.00 in /  0 mm
22:43 71.2 °F /  21.8 °C 68.4 °F /  20.2 °C 30.01 in /  1016.1 hPa SSE 1.3 mph /  2.1 km/h 7.0 mph /  11.3 km/h 91 % 0.00 in /  0 mm
22:48 71.2 °F /  21.8 °C 68.4 °F /  20.2 °C 30.00 in /  1015.8 hPa South 0.1 mph /  0.2 km/h 2.3 mph /  3.7 km/h 91 % 0.00 in /  0 mm
22:53 71.2 °F /  21.8 °C 68.4 °F /  20.2 °C 30.00 in /  1015.8 hPa SSE 4.1 mph /  6.6 km/h 6.9 mph /  11.1 km/h 91 % 0.00 in /  0 mm
22:58 71.2 °F /  21.8 °C 68.4 °F /  20.2 °C 30.00 in /  1015.8 hPa South 2.1 mph /  3.4 km/h 6.9 mph /  11.1 km/h 91 % 0.00 in /  0 mm
23:03 71.3 °F /  21.8 °C 68.5 °F /  20.3 °C 30.00 in /  1015.8 hPa South 1.7 mph /  2.7 km/h 5.8 mph /  9.3 km/h 91 % 0.00 in /  0 mm
23:09 71.3 °F /  21.8 °C 68.2 °F /  20.1 °C 30.00 in /  1015.8 hPa South 2.9 mph /  4.7 km/h 5.8 mph /  9.3 km/h 90 % 0.00 in /  0 mm
23:14 71.3 °F /  21.8 °C 68.2 °F /  20.1 °C 30.00 in /  1015.8 hPa SSW 3.8 mph /  6.1 km/h 3.8 mph /  6.1 km/h 90 % 0.00 in /  0 mm
23:18 71.3 °F /  21.8 °C 68.2 °F /  20.1 °C 29.99 in /  1015.5 hPa SSW 0.9 mph /  1.4 km/h 3.5 mph /  5.6 km/h 90 % 0.00 in /  0 mm
23:24 71.3 °F /  21.8 °C 68.2 °F /  20.1 °C 30.00 in /  1015.8 hPa SSE 2.6 mph /  4.2 km/h 6.9 mph /  11.1 km/h 90 % 0.00 in /  0 mm
23:25 71.3 °F /  21.8 °C 68.2 °F /  20.1 °C 29.99 in /  1015.5 hPa SSW 1.1 mph /  1.8 km/h 12.7 mph /  20.4 km/h 90 % 0.00 in /  0 mm
23:30 71.2 °F /  21.8 °C 68.1 °F /  20.1 °C 30.00 in /  1015.8 hPa SSE 0.3 mph /  0.5 km/h 1.2 mph /  1.9 km/h 90 % 0.00 in /  0 mm
23:36 71.3 °F /  21.8 °C 68.2 °F /  20.1 °C 29.99 in /  1015.5 hPa SSW 2.0 mph /  3.2 km/h 5.0 mph /  8 km/h 90 % 0.00 in /  0 mm
23:41 71.3 °F /  21.8 °C 68.2 °F /  20.1 °C 29.99 in /  1015.5 hPa South 2.0 mph /  3.2 km/h 5.0 mph /  8 km/h 90 % 0.00 in /  0 mm
23:46 71.3 °F /  21.8 °C 68.2 °F /  20.1 °C 29.99 in /  1015.5 hPa SSW 2.0 mph /  3.2 km/h 7.0 mph /  11.3 km/h 90 % 0.00 in /  0 mm
23:51 71.3 °F /  21.8 °C 68.2 °F /  20.1 °C 29.98 in /  1015.1 hPa South 1.0 mph /  1.6 km/h 7.0 mph /  11.3 km/h 90 % 0.00 in /  0 mm
23:56 71.3 °F /  21.8 °C 67.9 °F /  19.9 °C 29.99 in /  1015.5 hPa South 1.0 mph /  1.6 km/h 4.0 mph /  6.4 km/h 89 % 0.00 in /  0 mm
Crab Meadow Weather
Compliments of Weather Underground - 3 mb

Script developed by  Jim McMurry - jmcmurry@mwt.net Adapted for the template by  Wim van der Kuil - Leuven-Template.eu

Weather Terms: Winter Storm Watch - Conditions are favorable for hazardous winter weather conditions including heavy snow, blizzard conditions, or significant accumulations of freezing rain or sleet. These watches are issued by the Weather Service Forecast Office in Upton and are usually issued 12 to 36 hours in advance of the event.